createdAt,value
2023-04-24T00:00:54.146Z,17.73
2023-04-24T00:03:40.050Z,17.50
2023-04-24T00:06:25.539Z,17.92
2023-04-24T00:09:11.458Z,18.13
2023-04-24T00:11:57.113Z,17.65
2023-04-24T00:14:42.513Z,17.53
2023-04-24T00:17:27.437Z,17.08
2023-04-24T00:20:13.124Z,16.35
2023-04-24T00:22:58.424Z,16.50
2023-04-24T00:25:43.918Z,17.00
2023-04-24T00:28:29.481Z,16.47
2023-04-24T00:31:16.042Z,15.77
2023-04-24T00:34:01.532Z,16.20
2023-04-24T00:36:47.169Z,15.75
2023-04-24T00:39:32.851Z,17.02
2023-04-24T00:42:18.345Z,15.50
2023-04-24T00:45:04.224Z,16.52
2023-04-24T00:47:50.293Z,16.13
2023-04-24T00:50:36.998Z,16.00
2023-04-24T00:53:22.902Z,15.23
2023-04-24T00:56:08.600Z,15.00
2023-04-24T00:58:53.799Z,15.43
2023-04-24T01:01:42.956Z,14.10
2023-04-24T01:04:28.485Z,14.25
2023-04-24T01:07:13.513Z,14.23
2023-04-24T01:09:58.539Z,14.43
2023-04-24T01:12:43.592Z,14.13
2023-04-24T01:15:31.336Z,14.27
2023-04-24T01:18:16.662Z,14.55
2023-04-24T01:21:03.668Z,13.90
2023-04-24T01:23:50.261Z,13.53
2023-04-24T01:26:37.630Z,13.55
2023-04-24T01:29:22.454Z,13.32
2023-04-24T01:32:07.275Z,14.10
2023-04-24T01:34:52.462Z,13.00
2023-04-24T01:37:40.878Z,13.10
2023-04-24T01:40:26.335Z,13.15
2023-04-24T01:43:11.216Z,12.70
2023-04-24T01:45:56.211Z,12.68
2023-04-24T01:48:42.204Z,12.50
2023-04-24T01:51:28.008Z,11.30
2023-04-24T01:54:13.781Z,11.90
2023-04-24T01:56:58.672Z,11.95
2023-04-24T01:59:44.447Z,11.57
2023-04-24T02:02:31.324Z,12.20
2023-04-24T02:05:16.659Z,11.50
2023-04-24T02:08:01.618Z,11.43
2023-04-24T02:10:47.788Z,11.77
2023-04-24T02:13:32.885Z,11.20
2023-04-24T02:16:19.633Z,11.07
2023-04-24T02:19:04.755Z,11.73
2023-04-24T02:21:50.102Z,11.07
2023-04-24T02:24:35.302Z,10.85
2023-04-24T02:27:20.099Z,10.77
2023-04-24T02:30:05.982Z,11.02
2023-04-24T02:32:51.052Z,10.83
2023-04-24T02:35:37.195Z,10.70
2023-04-24T02:38:22.351Z,10.63
2023-04-24T02:41:07.864Z,10.23
2023-04-24T02:43:52.993Z,10.32
2023-04-24T02:46:38.111Z,9.77
2023-04-24T02:49:23.432Z,9.57
2023-04-24T02:52:08.533Z,10.77
2023-04-24T02:54:55.020Z,9.90
2023-04-24T02:57:40.370Z,9.80
2023-04-24T03:00:26.224Z,10.13
2023-04-24T03:03:11.409Z,9.38
2023-04-24T03:05:56.770Z,9.52
2023-04-24T03:08:42.046Z,9.93
2023-04-24T03:11:27.160Z,9.85
2023-04-24T03:14:12.383Z,9.40
2023-04-24T03:16:57.524Z,8.82
2023-04-24T03:19:42.862Z,8.88
2023-04-24T03:22:30.304Z,9.07
2023-04-24T03:25:15.621Z,9.00
2023-04-24T03:28:01.038Z,8.70
2023-04-24T03:31:06.599Z,8.55
2023-04-24T03:33:55.644Z,8.88
2023-04-24T03:36:40.587Z,8.75
2023-04-24T03:39:28.308Z,8.45
2023-04-24T03:42:14.988Z,8.57
2023-04-24T03:45:09.530Z,8.68
2023-04-24T03:47:57.200Z,8.95
2023-04-24T03:50:42.556Z,7.78
2023-04-24T03:53:30.198Z,8.10
2023-04-24T03:56:15.907Z,8.97
2023-04-24T03:59:01.541Z,8.07
2023-04-24T04:01:47.321Z,7.47
2023-04-24T04:04:35.046Z,7.93
2023-04-24T04:07:20.500Z,7.95
2023-04-24T04:10:06.060Z,7.97
2023-04-24T04:12:51.101Z,8.10
2023-04-24T04:15:36.829Z,8.07
2023-04-24T04:18:22.003Z,7.78
2023-04-24T04:21:07.477Z,7.50
2023-04-24T04:23:53.528Z,6.73
2023-04-24T04:26:47.942Z,6.78
2023-04-24T04:29:41.213Z,6.97
2023-04-24T04:32:27.852Z,7.25
2023-04-24T04:35:13.503Z,6.90
2023-04-24T04:37:59.788Z,6.60
2023-04-24T04:41:14.564Z,6.38
2023-04-24T04:44:00.171Z,6.13
2023-04-24T04:46:45.538Z,6.50
2023-04-24T04:49:49.141Z,6.30
2023-04-24T04:52:38.452Z,6.00
2023-04-24T04:55:34.148Z,5.95
2023-04-24T04:58:30.088Z,6.03
2023-04-24T05:01:18.690Z,5.70
2023-04-24T05:04:06.120Z,5.40
2023-04-24T05:06:52.195Z,5.67
2023-04-24T05:09:37.775Z,5.40
2023-04-24T05:12:24.608Z,5.22
2023-04-24T05:15:11.749Z,4.60
2023-04-24T05:17:58.095Z,5.28
2023-04-24T05:20:44.823Z,5.07
2023-04-24T05:23:30.318Z,5.22
2023-04-24T05:26:16.606Z,5.18
2023-04-24T05:29:02.385Z,4.90
2023-04-24T05:31:47.634Z,4.90
2023-04-24T05:34:33.548Z,4.47
2023-04-24T05:37:18.942Z,4.60
2023-04-24T05:40:06.294Z,4.70
2023-04-24T05:42:51.331Z,4.75
2023-04-24T05:45:37.076Z,4.60
2023-04-24T05:48:23.510Z,4.80
2023-04-24T05:51:10.541Z,4.18
2023-04-24T05:53:56.156Z,4.10
2023-04-24T05:56:43.170Z,3.78
2023-04-24T05:59:31.736Z,3.97
2023-04-24T06:02:17.477Z,2.50
2023-04-24T06:05:03.620Z,1.50
2023-04-24T06:07:49.152Z,1.60
2023-04-24T06:10:34.535Z,1.20
2023-04-24T06:13:19.721Z,1.23
2023-04-24T06:16:24.815Z,1.20
2023-04-24T06:19:16.614Z,1.20
2023-04-24T06:22:01.578Z,1.40
2023-04-24T06:24:48.454Z,1.35
2023-04-24T06:27:33.645Z,1.63
2023-04-24T06:30:18.959Z,1.47
2023-04-24T06:33:18.744Z,1.40
2023-04-24T06:36:06.188Z,1.50
2023-04-24T06:38:51.369Z,1.63
2023-04-24T06:41:37.019Z,1.40
2023-04-24T06:44:22.338Z,1.50
2023-04-24T06:47:09.470Z,1.58
2023-04-24T06:49:54.711Z,1.52
2023-04-24T06:52:40.060Z,1.40
2023-04-24T06:55:25.040Z,1.65
2023-04-24T06:58:10.188Z,1.57
2023-04-24T07:00:55.587Z,1.48
2023-04-24T07:03:40.885Z,1.50
2023-04-24T07:06:26.649Z,1.55
2023-04-24T07:09:11.965Z,1.50
2023-04-24T07:11:57.572Z,1.53
2023-04-24T07:14:42.869Z,1.35
2023-04-24T07:17:28.102Z,1.45
2023-04-24T07:20:15.455Z,1.52
2023-04-24T07:23:00.824Z,1.50
2023-04-24T07:25:46.120Z,1.60
2023-04-24T07:28:32.827Z,1.48
2023-04-24T07:31:18.401Z,1.50
2023-04-24T07:34:03.946Z,1.40
2023-04-24T07:36:49.223Z,1.58
2023-04-24T07:39:34.361Z,1.40
2023-04-24T07:42:19.228Z,1.20
2023-04-24T07:45:04.927Z,1.58
2023-04-24T07:47:51.543Z,1.80
2023-04-24T07:50:37.259Z,1.60
2023-04-24T07:53:22.373Z,1.40
2023-04-24T07:56:07.556Z,1.42
2023-04-24T07:58:52.758Z,1.40
2023-04-24T08:01:38.035Z,1.33
2023-04-24T08:04:23.397Z,1.27
2023-04-24T08:07:09.242Z,1.13
2023-04-24T08:09:54.926Z,1.58
2023-04-24T08:12:40.323Z,1.40
2023-04-24T08:15:25.908Z,1.30
2023-04-24T08:18:13.477Z,1.30
2023-04-24T08:21:02.290Z,1.20
2023-04-24T08:23:48.030Z,1.48
2023-04-24T08:26:33.245Z,1.55
2023-04-24T08:29:18.744Z,1.52
2023-04-24T08:32:03.875Z,1.35
2023-04-24T08:34:50.011Z,1.50
2023-04-24T08:37:35.288Z,1.30
2023-04-24T08:40:23.211Z,1.27
2023-04-24T08:43:08.699Z,1.35
2023-04-24T08:45:57.307Z,1.48
2023-04-24T08:48:43.008Z,1.30
2023-04-24T08:51:28.808Z,1.40
2023-04-24T08:54:15.210Z,1.33
2023-04-24T08:57:04.561Z,1.25
2023-04-24T08:59:50.197Z,1.40
2023-04-24T09:02:36.325Z,1.43
2023-04-24T09:05:22.356Z,1.40
2023-04-24T09:08:07.855Z,1.50
2023-04-24T09:10:53.161Z,1.52
2023-04-24T09:13:38.536Z,1.40
2023-04-24T09:16:25.305Z,1.40
2023-04-24T09:19:10.628Z,1.38
2023-04-24T09:21:56.209Z,1.27
2023-04-24T09:24:41.338Z,1.35
2023-04-24T09:27:26.107Z,1.30
2023-04-24T09:30:11.544Z,1.50
2023-04-24T09:33:15.999Z,1.35
2023-04-24T09:36:01.427Z,1.48
2023-04-24T09:38:47.422Z,1.50
2023-04-24T09:41:33.587Z,1.30
2023-04-24T09:44:21.878Z,1.57
2023-04-24T09:47:09.872Z,1.65
2023-04-24T09:49:58.779Z,1.50
2023-04-24T09:52:45.079Z,1.50
2023-04-24T09:55:30.369Z,1.40
2023-04-24T09:58:15.798Z,1.23
2023-04-24T10:01:01.081Z,1.33
2023-04-24T10:03:46.778Z,1.63
2023-04-24T10:06:36.113Z,1.50
2023-04-24T10:09:22.589Z,1.77
2023-04-24T10:12:08.979Z,1.40
2023-04-24T10:14:55.046Z,1.30
2023-04-24T10:17:41.429Z,1.40
2023-04-24T10:20:30.172Z,1.30
2023-04-24T10:23:15.937Z,1.50
2023-04-24T10:26:01.260Z,1.40
2023-04-24T10:28:47.030Z,1.50
2023-04-24T10:31:32.670Z,1.60
2023-04-24T10:34:19.335Z,1.52
2023-04-24T10:37:04.395Z,1.50
2023-04-24T10:39:49.769Z,1.50
2023-04-24T10:42:35.773Z,1.50
2023-04-24T10:45:22.843Z,1.38
2023-04-24T10:48:12.211Z,1.45
2023-04-24T10:50:57.631Z,1.40
2023-04-24T10:53:42.439Z,1.60
2023-04-24T10:56:27.758Z,1.60
2023-04-24T10:59:24.625Z,1.50
2023-04-24T11:02:10.233Z,1.60
2023-04-24T11:04:55.737Z,1.75
2023-04-24T11:08:00.028Z,1.60
2023-04-24T11:10:46.232Z,1.40
2023-04-24T11:13:50.477Z,1.30
2023-04-24T11:16:57.401Z,1.40
2023-04-24T11:19:42.496Z,1.65
2023-04-24T11:22:29.205Z,1.40
2023-04-24T11:25:17.210Z,1.50
2023-04-24T11:28:06.274Z,1.50
2023-04-24T11:30:52.185Z,1.42
2023-04-24T11:33:37.368Z,1.40
2023-04-24T11:36:22.799Z,1.23
2023-04-24T11:39:08.206Z,1.50
2023-04-24T11:41:53.472Z,1.73
2023-04-24T11:44:39.368Z,1.30
2023-04-24T11:47:31.081Z,1.33
2023-04-24T11:50:17.527Z,1.50
2023-04-24T11:53:02.311Z,1.40
2023-04-24T11:55:47.561Z,1.27
2023-04-24T11:58:36.858Z,1.50
2023-04-24T12:01:22.485Z,1.40
2023-04-24T12:04:08.325Z,1.17
2023-04-24T12:07:03.970Z,1.45
2023-04-24T12:09:52.585Z,1.60
2023-04-24T12:12:38.084Z,1.45
2023-04-24T12:15:23.253Z,1.30
2023-04-24T12:18:12.468Z,1.43
2023-04-24T12:21:15.510Z,1.27
2023-04-24T12:24:00.401Z,1.30
2023-04-24T12:26:45.590Z,1.30
2023-04-24T12:29:30.280Z,1.40
2023-04-24T12:32:18.278Z,1.20
2023-04-24T12:35:07.292Z,1.30
2023-04-24T12:37:52.607Z,1.60
2023-04-24T12:40:38.143Z,1.17
2023-04-24T12:43:24.095Z,1.40
2023-04-24T12:46:09.294Z,1.33
2023-04-24T12:48:54.493Z,1.40
2023-04-24T12:51:39.428Z,1.30
2023-04-24T12:54:24.785Z,1.40
2023-04-24T12:57:09.944Z,1.30
2023-04-24T12:59:56.421Z,1.40
2023-04-24T13:02:41.658Z,1.42
2023-04-24T13:05:27.014Z,1.40
2023-04-24T13:08:13.738Z,1.30
2023-04-24T13:10:58.631Z,1.40
2023-04-24T13:13:44.237Z,1.20
2023-04-24T13:16:29.676Z,1.02
2023-04-24T13:19:14.577Z,1.30
2023-04-24T13:22:00.207Z,1.20
2023-04-24T13:24:45.721Z,1.50
2023-04-24T13:27:30.954Z,1.30
2023-04-24T13:30:15.942Z,1.00
2023-04-24T13:33:00.963Z,1.40
2023-04-24T13:35:46.281Z,1.20
2023-04-24T13:38:31.313Z,1.20
2023-04-24T13:41:16.714Z,1.10
2023-04-24T13:44:02.296Z,1.15
2023-04-24T13:46:47.888Z,1.40
2023-04-24T13:49:33.558Z,1.10
2023-04-24T13:52:18.501Z,1.23
2023-04-24T13:55:03.558Z,1.20
2023-04-24T13:57:48.967Z,1.13
2023-04-24T14:00:34.953Z,1.25
2023-04-24T14:03:20.431Z,1.65
2023-04-24T14:06:05.712Z,1.38
2023-04-24T14:08:51.700Z,1.00
2023-04-24T14:11:36.778Z,1.30
2023-04-24T14:14:22.148Z,1.25
2023-04-24T14:17:07.736Z,1.40
2023-04-24T14:19:53.050Z,1.20
2023-04-24T14:22:38.292Z,1.23
2023-04-24T14:25:23.956Z,1.30
2023-04-24T14:28:09.156Z,1.20
2023-04-24T14:30:57.500Z,1.33
2023-04-24T14:33:43.150Z,1.55
2023-04-24T14:36:28.356Z,1.10
2023-04-24T14:39:13.255Z,1.20
2023-04-24T14:41:58.560Z,1.27
2023-04-24T14:44:43.748Z,1.02
2023-04-24T14:47:29.020Z,1.30
2023-04-24T14:50:14.619Z,0.90
2023-04-24T14:52:59.826Z,1.20
2023-04-24T14:55:45.344Z,0.90
2023-04-24T14:58:30.846Z,0.90
2023-04-24T15:01:17.741Z,1.08
2023-04-24T15:04:03.513Z,0.93
2023-04-24T15:06:48.899Z,0.90
2023-04-24T15:09:34.035Z,1.00
2023-04-24T15:12:18.876Z,0.82
2023-04-24T15:15:04.022Z,0.80
2023-04-24T15:17:49.537Z,1.13
2023-04-24T15:20:37.305Z,1.00
2023-04-24T15:23:23.585Z,1.17
2023-04-24T15:26:08.475Z,1.10
2023-04-24T15:28:53.296Z,0.90
2023-04-24T15:31:41.073Z,0.80
2023-04-24T15:34:26.809Z,1.30
2023-04-24T15:37:12.329Z,1.00
2023-04-24T15:39:57.893Z,1.15
2023-04-24T15:42:43.702Z,1.20
2023-04-24T15:45:29.074Z,1.27
2023-04-24T15:48:14.374Z,1.30
2023-04-24T15:50:59.998Z,1.02
2023-04-24T15:53:46.990Z,1.00
2023-04-24T15:56:31.987Z,1.10
2023-04-24T15:59:18.325Z,1.00
2023-04-24T16:02:04.981Z,0.90
2023-04-24T16:04:50.907Z,1.10
2023-04-24T16:07:38.157Z,1.20
2023-04-24T16:10:23.255Z,1.20
2023-04-24T16:13:08.489Z,1.17
2023-04-24T16:15:53.948Z,0.82
2023-04-24T16:18:39.103Z,0.80
2023-04-24T16:21:24.601Z,1.10
2023-04-24T16:24:09.568Z,1.00
2023-04-24T16:26:55.187Z,1.00
2023-04-24T16:29:40.536Z,1.40
2023-04-24T16:32:25.532Z,1.10
2023-04-24T16:35:10.893Z,0.90
2023-04-24T16:37:55.878Z,1.00
2023-04-24T16:44:59.980Z,0.90
2023-04-24T16:47:45.672Z,0.80
2023-04-24T16:50:31.286Z,0.98
2023-04-24T16:53:16.318Z,1.00
2023-04-24T16:56:01.529Z,1.03
2023-04-24T16:58:46.368Z,1.05
2023-04-24T17:01:31.632Z,1.10
2023-04-24T17:04:16.939Z,0.85
2023-04-24T17:07:02.090Z,1.33
2023-04-24T17:09:47.518Z,0.83
2023-04-24T17:12:32.900Z,0.93
2023-04-24T17:15:17.973Z,1.00
2023-04-24T17:18:03.376Z,0.98
2023-04-24T17:20:48.671Z,1.20
2023-04-24T17:23:34.044Z,1.50
2023-04-24T17:26:19.231Z,1.77
2023-04-24T17:29:04.575Z,1.80
2023-04-24T17:31:49.453Z,1.90
2023-04-24T17:34:34.537Z,2.40
2023-04-24T17:37:23.304Z,2.53
2023-04-24T17:40:08.968Z,2.33
2023-04-24T17:42:54.446Z,2.90
2023-04-24T17:45:39.464Z,3.10
2023-04-24T17:48:25.584Z,5.45
2023-04-24T17:51:10.644Z,8.90
2023-04-24T17:53:55.603Z,10.85
2023-04-24T17:56:40.852Z,12.70
2023-04-24T17:59:26.513Z,14.57
2023-04-24T18:02:11.822Z,16.25
2023-04-24T18:04:56.975Z,15.90
2023-04-24T18:07:42.466Z,17.25
2023-04-24T18:10:28.477Z,17.73
2023-04-24T18:13:13.473Z,17.73
2023-04-24T18:15:58.264Z,17.13
2023-04-24T18:18:43.587Z,16.80
2023-04-24T18:21:29.197Z,18.10
2023-04-24T18:24:14.498Z,18.58
2023-04-24T18:26:59.428Z,18.45
2023-04-24T18:29:44.533Z,17.20
2023-04-24T18:32:29.991Z,18.30
2023-04-24T18:35:15.679Z,18.17
2023-04-24T18:38:01.454Z,17.17
2023-04-24T18:40:46.861Z,17.77
2023-04-24T18:43:32.185Z,17.35
2023-04-24T18:46:17.878Z,17.10
2023-04-24T18:49:02.824Z,16.20
2023-04-24T18:51:53.620Z,17.13
2023-04-24T18:54:40.931Z,15.80
2023-04-24T18:57:26.314Z,18.00
2023-04-24T19:00:11.821Z,16.33
2023-04-24T19:02:56.836Z,15.77
2023-04-24T19:05:42.314Z,16.73
2023-04-24T19:08:27.099Z,16.67
2023-04-24T19:11:11.878Z,15.88
2023-04-24T19:13:59.024Z,16.37
2023-04-24T19:16:44.091Z,16.20
2023-04-24T19:19:32.003Z,15.68
2023-04-24T19:22:17.768Z,16.83
2023-04-24T19:25:03.705Z,16.45
2023-04-24T19:27:49.697Z,16.47
2023-04-24T19:30:35.426Z,15.70
2023-04-24T19:33:20.368Z,15.50
2023-04-24T19:36:05.628Z,15.15
2023-04-24T19:38:51.271Z,15.55
2023-04-24T19:41:39.311Z,14.73
2023-04-24T19:44:25.237Z,14.63
2023-04-24T19:47:10.222Z,14.35
2023-04-24T19:49:55.111Z,15.15
2023-04-24T19:52:40.850Z,15.32
2023-04-24T19:55:26.134Z,13.80
2023-04-24T19:58:11.150Z,14.40
2023-04-24T20:00:56.514Z,15.05
2023-04-24T20:03:42.017Z,14.10
2023-04-24T20:06:27.364Z,15.63
2023-04-24T20:09:12.814Z,15.47
2023-04-24T20:11:58.362Z,14.10
2023-04-24T20:14:43.785Z,14.20
2023-04-24T20:17:28.943Z,13.65
2023-04-24T20:20:13.974Z,14.20
2023-04-24T20:22:59.029Z,15.17
2023-04-24T20:25:44.069Z,13.55
2023-04-24T20:28:30.149Z,14.90
2023-04-24T20:31:15.657Z,14.27
2023-04-24T20:34:00.979Z,13.75
2023-04-24T20:36:49.363Z,13.20
2023-04-24T20:39:34.654Z,14.13
2023-04-24T20:42:19.669Z,13.60
2023-04-24T20:45:04.800Z,13.63
2023-04-24T20:47:50.801Z,13.23
2023-04-24T20:50:41.770Z,12.93
2023-04-24T20:53:27.385Z,13.05
2023-04-24T20:56:12.232Z,12.82
2023-04-24T20:58:57.577Z,12.68
2023-04-24T21:01:44.706Z,13.15
2023-04-24T21:04:32.197Z,12.37
2023-04-24T21:07:17.536Z,12.75
2023-04-24T21:10:02.598Z,13.10
2023-04-24T21:12:47.390Z,11.80
2023-04-24T21:15:33.140Z,12.63
2023-04-24T21:18:18.121Z,12.60
2023-04-24T21:21:03.950Z,12.20
2023-04-24T21:23:49.213Z,12.23
2023-04-24T21:26:34.929Z,12.38
2023-04-24T21:29:21.026Z,12.55
2023-04-24T21:32:06.140Z,12.53
2023-04-24T21:34:51.546Z,12.93
2023-04-24T21:37:37.931Z,12.27
2023-04-24T21:40:23.242Z,11.23
2023-04-24T21:43:10.011Z,11.02
2023-04-24T21:45:56.849Z,12.37
2023-04-24T21:48:41.943Z,11.52
2023-04-24T21:51:26.929Z,11.63
2023-04-24T21:54:12.180Z,11.38
2023-04-24T21:56:57.426Z,11.60
2023-04-24T21:59:42.393Z,10.63
2023-04-24T22:02:27.615Z,10.38
2023-04-24T22:05:15.827Z,11.30
2023-04-24T22:08:01.683Z,11.30
2023-04-24T22:10:46.918Z,10.85
2023-04-24T22:13:31.877Z,10.60
2023-04-24T22:16:17.887Z,10.80
2023-04-24T22:19:03.106Z,10.60
2023-04-24T22:21:48.339Z,10.40
2023-04-24T22:24:33.438Z,10.48
2023-04-24T22:27:18.250Z,10.30
2023-04-24T22:30:03.831Z,10.13
2023-04-24T22:32:48.963Z,10.25
2023-04-24T22:35:36.291Z,10.52
2023-04-24T22:38:21.816Z,10.30
2023-04-24T22:41:07.130Z,10.10
2023-04-24T22:43:52.508Z,10.43
2023-04-24T22:46:37.910Z,10.40
2023-04-24T22:49:23.298Z,9.25
2023-04-24T22:52:08.815Z,9.10
2023-04-24T22:54:53.791Z,9.30
2023-04-24T22:57:38.773Z,10.13
2023-04-24T23:00:23.744Z,9.70
2023-04-24T23:03:09.038Z,9.57
2023-04-24T23:05:53.904Z,9.55
2023-04-24T23:08:38.969Z,9.90
2023-04-24T23:11:23.942Z,9.35
2023-04-24T23:14:09.108Z,9.07
2023-04-24T23:16:54.254Z,9.30
2023-04-24T23:19:39.752Z,9.18
2023-04-24T23:22:24.932Z,9.40
2023-04-24T23:25:10.972Z,9.00
2023-04-24T23:27:56.628Z,8.93
2023-04-24T23:30:41.748Z,8.50
2023-04-24T23:33:28.416Z,9.30
2023-04-24T23:36:14.942Z,8.87
2023-04-24T23:39:01.211Z,8.32
2023-04-24T23:41:46.967Z,8.77
2023-04-24T23:44:32.021Z,8.70
2023-04-24T23:47:17.217Z,8.75
2023-04-24T23:50:02.660Z,8.40
2023-04-24T23:52:47.738Z,8.43
2023-04-24T23:55:32.855Z,8.35
2023-04-24T23:58:18.072Z,8.93
